Time;durP1;ratioP1;P1;durP2;ratioP2;P2;SDS_P1;SDS_P2;PMS_P1;PMS_P2;Temp;Humidity;BMP_temperature;BMP_pressure;BME280_temperature;BME280_humidity;BME280_pressure;Samples;Min_cycle;Max_cycle;Signal;HPM_P1;HPM_P2
2022/02/17 00:01:06;;;;;;;;;;;;;;;8.38;100.00;96736.75;5093396;28;19932;-74
2022/02/17 00:03:51;;;;;;;;;;;;;;;8.40;100.00;96748.22;5093347;28;19952;-74
2022/02/17 00:06:37;;;;;;;;;;;;;;;8.51;100.00;96740.13;5092242;28;19924;-74
2022/02/17 00:09:06;;;;;;;;;;;;;;;8.59;100.00;96748.94;5092118;28;19924;-74
2022/02/17 00:11:34;;;;;;;;;;;;;;;8.49;100.00;96733.50;5091859;28;19924;-74
2022/02/17 00:14:01;;;;;;;;;;;;;;;8.49;100.00;96745.41;5093929;28;19972;-74
2022/02/17 00:16:28;;;;;;;;;;;;;;;8.66;100.00;96757.75;5095708;28;19925;-74
2022/02/17 00:18:55;;;;;;;;;;;;;;;8.30;100.00;96721.59;5096872;28;20013;-74
2022/02/17 00:21:22;;;;;;;;;;;;;;;8.57;100.00;96791.16;5097069;28;19928;-74
2022/02/17 00:24:09;;;;;;;;;;;;;;;8.43;100.00;96763.97;5096941;28;19984;-75
2022/02/17 00:26:36;;;;;;;;;;;;;;;8.40;100.00;96814.19;5096787;28;19958;-80
2022/02/17 00:29:03;;;;;;;;;;;;;;;8.58;100.00;96798.28;5095946;28;19996;-74
2022/02/17 00:31:30;;;;;;;;;;;;;;;8.50;100.00;96836.00;5095563;28;19924;-74
2022/02/17 00:34:00;;;;;;;;;;;;;;;8.47;100.00;96816.66;5090934;28;19924;-74
2022/02/17 00:36:30;;;;;;;;;;;;;;;8.29;100.00;96836.91;5075320;28;19924;-74
2022/02/17 00:38:57;;;;;;;;;;;;;;;8.32;100.00;96838.00;5075287;28;19925;-74
2022/02/17 00:41:25;;;;;;;;;;;;;;;8.36;100.00;96836.59;5075163;28;19936;-74
2022/02/17 00:43:53;;;;;;;;;;;;;;;8.34;100.00;96844.66;5075093;28;19975;-74
2022/02/17 00:46:21;;;;;;;;;;;;;;;8.20;100.00;96861.91;5075194;28;19931;-74
2022/02/17 00:48:48;;;;;;;;;;;;;;;8.34;100.00;96868.91;5076208;28;19924;-74
2022/02/17 00:51:15;;;;;;;;;;;;;;;8.42;100.00;96879.28;5076233;28;20322;-74
2022/02/17 00:53:42;;;;;;;;;;;;;;;8.44;100.00;96887.16;5075006;28;19924;-74
2022/02/17 00:56:10;;;;;;;;;;;;;;;8.39;100.00;96874.63;5058196;28;19928;-74
2022/02/17 00:58:37;;;;;;;;;;;;;;;8.16;100.00;96869.63;5074971;28;19925;-74
2022/02/17 01:01:17;;;;;;;;;;;;;;;8.32;100.00;96883.28;5075119;28;19931;-74
2022/02/17 01:03:44;;;;;;;;;;;;;;;8.26;100.00;96887.13;5074613;28;19930;-74
2022/02/17 01:06:11;;;;;;;;;;;;;;;8.05;100.00;96882.41;5058249;28;19925;-74
2022/02/17 01:08:39;;;;;;;;;;;;;;;8.38;100.00;96947.44;5076039;28;19925;-74
2022/02/17 01:11:07;;;;;;;;;;;;;;;8.38;100.00;96951.00;5074751;28;20019;-74
2022/02/17 01:13:34;;;;;;;;;;;;;;;8.43;100.00;96919.81;5074743;28;19960;-74
2022/02/17 01:16:01;;;;;;;;;;;;;;;8.27;100.00;96947.13;5057980;28;20344;-74
2022/02/17 01:18:29;;;;;;;;;;;;;;;8.30;100.00;96927.47;5074466;28;19947;-74
2022/02/17 01:20:56;;;;;;;;;;;;;;;8.25;100.00;96947.56;5074716;28;19970;-74
2022/02/17 01:23:41;;;;;;;;;;;;;;;8.15;100.00;96968.19;5074707;28;19925;-74
2022/02/17 01:26:27;;;;;;;;;;;;;;;8.02;100.00;96973.09;5060930;28;20360;-74
2022/02/17 01:29:01;;;;;;;;;;;;;;;8.44;100.00;96965.84;5074561;28;20249;-74
2022/02/17 01:31:31;;;;;;;;;;;;;;;8.37;100.00;96966.16;5057888;28;19924;-74
2022/02/17 01:34:09;;;;;;;;;;;;;;;8.19;100.00;96982.75;5081254;28;19928;-74
2022/02/17 01:36:39;;;;;;;;;;;;;;;7.94;100.00;96996.84;5094495;28;19928;-74
2022/02/17 01:39:06;;;;;;;;;;;;;;;7.86;100.00;96998.31;5077629;28;20375;-74
2022/02/17 01:41:36;;;;;;;;;;;;;;;7.89;100.00;97011.31;5094460;28;19924;-74
2022/02/17 01:44:27;;;;;;;;;;;;;;;7.85;100.00;97013.47;5094593;28;19924;-74
2022/02/17 01:47:21;;;;;;;;;;;;;;;7.85;100.00;97044.03;5094321;28;20288;-74
2022/02/17 01:49:49;;;;;;;;;;;;;;;8.03;100.00;97046.94;5094320;28;20035;-74
2022/02/17 01:52:18;;;;;;;;;;;;;;;7.83;100.00;97031.84;5094023;28;20288;-74
2022/02/17 01:54:47;;;;;;;;;;;;;;;7.69;100.00;97027.56;5094162;28;20383;-74
2022/02/17 01:57:16;;;;;;;;;;;;;;;7.79;100.00;97043.09;5111199;28;19924;-74
2022/02/17 01:59:51;;;;;;;;;;;;;;;7.87;100.00;97055.50;5094257;28;20019;-74
2022/02/17 02:02:24;;;;;;;;;;;;;;;7.89;100.00;97046.69;5093851;28;20337;-74
2022/02/17 02:04:58;;;;;;;;;;;;;;;7.75;100.00;97064.69;5094099;28;19989;-74
2022/02/17 02:07:25;;;;;;;;;;;;;;;7.85;100.00;97062.72;5094888;28;20398;-74
2022/02/17 02:09:56;;;;;;;;;;;;;;;7.71;100.00;97075.13;5093742;28;19924;-74
2022/02/17 02:12:30;;;;;;;;;;;;;;;7.84;100.00;97128.69;5093934;28;19931;-74
2022/02/17 02:14:59;;;;;;;;;;;;;;;7.79;100.00;97089.56;5060254;28;20370;-74
2022/02/17 02:17:29;;;;;;;;;;;;;;;7.87;100.00;97094.41;5093387;28;19924;-74
2022/02/17 02:19:59;;;;;;;;;;;;;;;7.89;100.00;97133.66;5093701;28;19924;-74
2022/02/17 02:22:29;;;;;;;;;;;;;;;7.77;100.00;97114.28;5110814;27;19966;-74
2022/02/17 02:25:00;;;;;;;;;;;;;;;7.87;100.00;97113.88;5093522;28;20381;-74
2022/02/17 02:27:28;;;;;;;;;;;;;;;7.77;100.00;97155.97;5093559;28;19925;-74
2022/02/17 02:29:58;;;;;;;;;;;;;;;7.77;100.00;97128.94;5093262;28;20382;-74
2022/02/17 02:32:32;;;;;;;;;;;;;;;7.66;100.00;97156.34;5093428;28;19932;-74
2022/02/17 02:35:00;;;;;;;;;;;;;;;7.62;100.00;97129.91;5079098;28;20391;-74
2022/02/17 02:37:27;;;;;;;;;;;;;;;7.63;100.00;97135.00;5072330;28;20011;-74
2022/02/17 02:39:55;;;;;;;;;;;;;;;7.52;100.00;97134.59;5074288;28;19930;-74
2022/02/17 02:42:22;;;;;;;;;;;;;;;7.67;100.00;97159.88;5072953;28;20531;-74
2022/02/17 02:44:51;;;;;;;;;;;;;;;7.71;100.00;97155.75;5072797;28;19929;-74
2022/02/17 02:47:18;;;;;;;;;;;;;;;7.61;100.00;97170.78;5074143;28;19924;-74
2022/02/17 02:49:46;;;;;;;;;;;;;;;7.38;100.00;97167.66;5073041;28;19970;-74
2022/02/17 02:52:13;;;;;;;;;;;;;;;7.48;100.00;97178.41;5072730;28;19924;-74
2022/02/17 02:55:01;;;;;;;;;;;;;;;7.54;100.00;97176.59;5074035;28;19969;-74
2022/02/17 02:57:28;;;;;;;;;;;;;;;7.59;100.00;97201.03;5056330;28;19931;-74
2022/02/17 02:59:55;;;;;;;;;;;;;;;7.75;100.00;97209.22;5072465;28;19935;-74
2022/02/17 03:02:23;;;;;;;;;;;;;;;7.68;100.00;97200.34;5072582;28;20395;-74
2022/02/17 03:04:52;;;;;;;;;;;;;;;7.44;100.00;97202.72;5056095;28;19931;-74
2022/02/17 03:07:20;;;;;;;;;;;;;;;7.39;100.00;97203.31;5072682;28;19931;-74
2022/02/17 03:09:48;;;;;;;;;;;;;;;7.35;100.00;97230.41;5072407;28;19988;-74
2022/02/17 03:12:16;;;;;;;;;;;;;;;7.35;100.00;97230.41;5055857;28;19990;-74
2022/02/17 03:14:46;;;;;;;;;;;;;;;7.50;100.00;97237.06;5055589;28;19928;-74
2022/02/17 03:17:20;;;;;;;;;;;;;;;7.29;100.00;97232.19;5072390;28;20037;-74
2022/02/17 03:19:47;;;;;;;;;;;;;;;7.44;100.00;97252.75;5072370;28;20031;-74
2022/02/17 03:22:17;;;;;;;;;;;;;;;7.54;100.00;97265.53;5056225;28;19924;-74
2022/02/17 03:24:44;;;;;;;;;;;;;;;7.11;100.00;97259.75;5072433;28;19930;-74
2022/02/17 03:27:12;;;;;;;;;;;;;;;7.33;100.00;97257.84;5072049;28;20395;-74
2022/02/17 03:29:40;;;;;;;;;;;;;;;7.44;100.00;97277.00;5071691;28;20280;-74
2022/02/17 03:32:08;;;;;;;;;;;;;;;7.29;100.00;97276.63;5055302;28;19963;-74
2022/02/17 03:34:37;;;;;;;;;;;;;;;7.37;100.00;97264.09;5082480;28;19931;-74
2022/02/17 03:37:04;;;;;;;;;;;;;;;7.35;100.00;97291.53;5091836;28;19928;-74
2022/02/17 03:39:33;;;;;;;;;;;;;;;7.28;100.00;97291.75;5092133;28;19930;-74
2022/02/17 03:42:08;;;;;;;;;;;;;;;7.40;100.00;97288.22;5092293;28;19924;-74
2022/02/17 03:44:36;;;;;;;;;;;;;;;7.57;100.00;97281.31;5092374;28;20434;-74
2022/02/17 03:47:28;;;;;;;;;;;;;;;7.32;100.00;97290.44;5093584;28;20397;-74
2022/02/17 03:50:29;;;;;;;;;;;;;;;7.34;100.00;97312.22;5096569;28;19924;-74
2022/02/17 03:53:06;;;;;;;;;;;;;;;7.06;100.00;97301.94;5096358;28;19923;-74
2022/02/17 03:55:38;;;;;;;;;;;;;;;6.93;100.00;97295.59;5096250;28;19924;-74
2022/02/17 03:58:05;;;;;;;;;;;;;;;6.98;100.00;97311.72;5096060;28;19925;-74
2022/02/17 04:00:33;;;;;;;;;;;;;;;7.11;100.00;97320.84;5096296;28;19924;-74
2022/02/17 04:03:03;;;;;;;;;;;;;;;7.25;100.00;97304.53;5096073;28;19924;-74
2022/02/17 04:05:33;;;;;;;;;;;;;;;7.32;100.00;97321.00;5096112;28;19924;-74
2022/02/17 04:08:23;;;;;;;;;;;;;;;7.01;100.00;97300.50;5096535;28;19924;-74
2022/02/17 04:10:51;;;;;;;;;;;;;;;7.15;100.00;97299.28;5095870;28;19960;-74
2022/02/17 04:13:21;;;;;;;;;;;;;;;7.10;100.00;97349.84;5095827;28;19924;-74
2022/02/17 04:15:50;;;;;;;;;;;;;;;7.03;100.00;97319.50;5096022;28;19924;-74
2022/02/17 04:18:29;;;;;;;;;;;;;;;7.41;100.00;97347.34;5095628;28;20390;-74
2022/02/17 04:21:14;;;;;;;;;;;;;;;7.24;100.00;97341.06;5095891;28;19927;-74
2022/02/17 04:24:00;;;;;;;;;;;;;;;7.34;100.00;97351.91;5097131;28;19932;-74
2022/02/17 04:26:33;;;;;;;;;;;;;;;7.21;100.00;97353.06;5129636;27;19928;-74
2022/02/17 04:29:30;;;;;;;;;;;;;;;7.14;100.00;97350.50;5087603;28;20030;-74
2022/02/17 04:31:59;;;;;;;;;;;;;;;7.55;100.00;97367.13;5079123;28;20001;-74
2022/02/17 04:34:26;;;;;;;;;;;;;;;7.27;100.00;97377.09;5086095;28;20410;-74
2022/02/17 04:37:02;;;;;;;;;;;;;;;7.27;100.00;97367.97;5075228;28;19924;-79
2022/02/17 04:39:30;;;;;;;;;;;;;;;7.22;100.00;97362.97;5075192;28;20563;-74
2022/02/17 04:44:44;;;;;;;;;;;;;;;7.32;100.00;97384.09;5074656;28;20376;-74
2022/02/17 04:47:12;;;;;;;;;;;;;;;7.53;100.00;97391.03;5058218;28;19982;-74
2022/02/17 04:49:39;;;;;;;;;;;;;;;7.37;100.00;97389.13;5075021;28;19932;-74
2022/02/17 04:52:07;;;;;;;;;;;;;;;7.30;100.00;97397.63;5074966;28;19924;-74
2022/02/17 04:54:36;;;;;;;;;;;;;;;7.32;100.00;97398.00;5074682;28;19928;-74
2022/02/17 04:57:22;;;;;;;;;;;;;;;7.48;100.00;97395.13;5075081;28;19964;-74
2022/02/17 04:59:53;;;;;;;;;;;;;;;7.41;100.00;97411.25;5074197;28;20264;-74
2022/02/17 05:02:20;;;;;;;;;;;;;;;7.45;100.00;97404.34;5074588;28;19972;-74
2022/02/17 05:05:05;;;;;;;;;;;;;;;7.22;100.00;97429.63;5075631;28;19925;-73
2022/02/17 05:07:33;;;;;;;;;;;;;;;7.23;100.00;97428.41;5074835;28;19931;-74
2022/02/17 05:10:00;;;;;;;;;;;;;;;7.20;100.00;97429.28;5057642;28;20445;-74
2022/02/17 05:12:47;;;;;;;;;;;;;;;7.27;100.00;97432.66;5074599;28;20023;-74
2022/02/17 05:15:14;;;;;;;;;;;;;;;7.13;100.00;97419.16;5074536;28;20011;-74
2022/02/17 05:17:43;;;;;;;;;;;;;;;7.03;100.00;97439.69;5071883;28;19931;-74
2022/02/17 05:20:15;;;;;;;;;;;;;;;7.25;100.00;97453.75;5082849;28;19925;-74
2022/02/17 05:23:02;;;;;;;;;;;;;;;7.26;100.00;97456.09;5034303;28;20017;-74
2022/02/17 05:26:02;;;;;;;;;;;;;;;7.43;100.00;97461.56;5093371;28;19931;-74
2022/02/17 05:28:43;;;;;;;;;;;;;;;7.33;100.00;97455.09;5076541;28;19924;-74
2022/02/17 05:31:40;;;;;;;;;;;;;;;7.18;100.00;97459.50;5093118;28;19924;-74
2022/02/17 05:34:20;;;;;;;;;;;;;;;7.29;100.00;97490.53;5093279;28;20050;-74
2022/02/17 05:37:13;;;;;;;;;;;;;;;7.01;100.00;97475.44;5076235;28;19931;-74
2022/02/17 05:40:10;;;;;;;;;;;;;;;7.36;100.00;97476.47;5089278;28;20066;-74
2022/02/17 05:42:37;;;;;;;;;;;;;;;7.45;100.00;97503.59;5092954;28;20314;-74
2022/02/17 05:45:05;;;;;;;;;;;;;;;7.43;100.00;97508.81;5092891;28;19950;-74
2022/02/17 05:47:32;;;;;;;;;;;;;;;7.50;100.00;97498.28;5076075;28;19931;-74
2022/02/17 05:50:00;;;;;;;;;;;;;;;7.46;100.00;97496.81;5092945;28;19966;-74
2022/02/17 05:52:27;;;;;;;;;;;;;;;7.38;100.00;97493.47;5092978;28;19924;-74
2022/02/17 05:54:54;;;;;;;;;;;;;;;7.37;100.00;97491.91;5092738;28;19939;-74
2022/02/17 05:57:21;;;;;;;;;;;;;;;7.34;100.00;97495.56;5075729;28;19924;-74
2022/02/17 05:59:48;;;;;;;;;;;;;;;7.33;100.00;97505.91;5092739;28;19970;-74
2022/02/17 06:02:18;;;;;;;;;;;;;;;7.37;100.00;97516.91;5064552;28;19947;-74
2022/02/17 06:05:05;;;;;;;;;;;;;;;7.28;100.00;97519.56;5053934;28;19925;-74
2022/02/17 06:07:32;;;;;;;;;;;;;;;7.29;100.00;97518.31;5054446;28;19925;-74
2022/02/17 06:09:59;;;;;;;;;;;;;;;7.07;100.00;97507.00;5053455;28;20307;-74
2022/02/17 06:12:26;;;;;;;;;;;;;;;7.24;100.00;97507.75;5061523;28;19927;-74
2022/02/17 06:14:53;;;;;;;;;;;;;;;7.69;100.00;97530.69;5086024;28;19924;-74
2022/02/17 06:17:20;;;;;;;;;;;;;;;7.38;100.00;97546.25;5084418;28;19982;-74
2022/02/17 06:19:47;;;;;;;;;;;;;;;7.16;100.00;97534.16;5074575;28;19924;-74
2022/02/17 06:22:15;;;;;;;;;;;;;;;7.36;100.00;97554.25;5086744;28;19928;-74
2022/02/17 06:24:42;;;;;;;;;;;;;;;7.32;100.00;97554.34;5094724;28;19924;-74
2022/02/17 06:27:09;;;;;;;;;;;;;;;7.35;100.00;97552.69;5094682;28;19931;-74
2022/02/17 06:29:36;;;;;;;;;;;;;;;7.27;100.00;97568.75;5076481;28;20283;-74
2022/02/17 06:32:04;;;;;;;;;;;;;;;7.32;100.00;97564.69;5094582;28;19924;-74
2022/02/17 06:34:31;;;;;;;;;;;;;;;7.18;100.00;97576.94;5094649;28;19923;-74
2022/02/17 06:36:58;;;;;;;;;;;;;;;6.97;100.00;97555.28;5093109;28;19924;-74
2022/02/17 06:39:25;;;;;;;;;;;;;;;7.20;100.00;97568.97;5094547;28;19985;-74
2022/02/17 06:41:52;;;;;;;;;;;;;;;7.17;100.00;97575.41;5094561;28;19925;-74
2022/02/17 06:44:20;;;;;;;;;;;;;;;7.13;100.00;97562.81;5094302;28;20303;-74
2022/02/17 06:46:48;;;;;;;;;;;;;;;7.11;100.00;97560.47;5094330;28;20375;-74
2022/02/17 06:49:15;;;;;;;;;;;;;;;7.01;100.00;97566.31;5094382;28;20253;-74
2022/02/17 06:51:42;;;;;;;;;;;;;;;7.00;100.00;97570.28;5088721;28;19971;-74
2022/02/17 06:54:09;;;;;;;;;;;;;;;7.24;100.00;97579.97;5074104;28;19925;-74
2022/02/17 06:56:36;;;;;;;;;;;;;;;7.20;100.00;97582.06;5072808;28;19924;-74
2022/02/17 06:59:04;;;;;;;;;;;;;;;7.20;100.00;97582.06;5072667;28;19925;-74
2022/02/17 07:01:31;;;;;;;;;;;;;;;7.10;100.00;97591.47;5074016;28;19924;-74
2022/02/17 07:03:58;;;;;;;;;;;;;;;7.10;100.00;97591.47;5073935;28;20387;-74
2022/02/17 07:06:25;;;;;;;;;;;;;;;7.23;100.00;97583.97;5073746;28;20015;-74
2022/02/17 07:08:52;;;;;;;;;;;;;;;7.23;100.00;97598.66;5072754;28;19931;-74
2022/02/17 07:11:38;;;;;;;;;;;;;;;6.83;100.00;97610.38;5073654;28;19931;-74
2022/02/17 07:14:08;;;;;;;;;;;;;;;6.48;100.00;97634.19;5073657;28;19963;-74
2022/02/17 07:16:35;;;;;;;;;;;;;;;6.21;100.00;97646.69;5068179;28;19932;-74
2022/02/17 07:19:02;;;;;;;;;;;;;;;6.20;100.00;97650.66;5108605;28;19925;-74
2022/02/17 07:21:29;;;;;;;;;;;;;;;5.95;100.00;97655.94;5052454;28;19925;-74
2022/02/17 07:23:57;;;;;;;;;;;;;;;6.03;100.00;97635.19;5053340;28;19975;-74
2022/02/17 07:26:25;;;;;;;;;;;;;;;6.05;100.00;97649.38;5053632;28;19931;-74
2022/02/17 07:29:12;;;;;;;;;;;;;;;6.16;100.00;97666.59;5072021;28;19924;-74
2022/02/17 07:31:39;;;;;;;;;;;;;;;6.25;100.00;97658.47;5072556;28;19924;-75
2022/02/17 07:34:07;;;;;;;;;;;;;;;6.33;100.00;97665.47;5072273;28;20276;-75
2022/02/17 07:36:34;;;;;;;;;;;;;;;6.43;100.00;97672.75;5073568;28;20330;-75
2022/02/17 07:39:02;;;;;;;;;;;;;;;6.40;100.00;97670.84;5073362;28;20335;-74
2022/02/17 07:41:30;;;;;;;;;;;;;;;6.30;100.00;97680.19;5065993;28;19925;-75
2022/02/17 07:43:58;;;;;;;;;;;;;;;6.26;100.00;97676.69;5064920;28;20019;-75
2022/02/17 07:46:25;;;;;;;;;;;;;;;6.05;100.00;97705.63;5076893;28;19924;-72
2022/02/17 07:48:54;;;;;;;;;;;;;;;5.87;100.00;97705.19;5065401;28;20043;-72
2022/02/17 07:51:21;;;;;;;;;;;;;;;5.92;100.00;97709.47;5054716;28;19932;-73
2022/02/17 07:53:49;;;;;;;;;;;;;;;5.75;100.00;97735.47;5053533;28;19925;-72
2022/02/17 07:56:16;;;;;;;;;;;;;;;6.15;100.00;97743.47;5066095;28;19935;-72
2022/02/17 07:58:44;;;;;;;;;;;;;;;6.10;100.00;97751.50;5055716;28;19925;-72
2022/02/17 08:01:14;;;;;;;;;;;;;;;6.09;100.00;97750.72;5072251;28;19929;-73
2022/02/17 08:03:41;;;;;;;;;;;;;;;6.26;100.00;97744.03;5082122;28;19931;-72
2022/02/17 08:06:28;;;;;;;;;;;;;;;6.38;100.00;97745.38;5093929;28;19931;-72
2022/02/17 08:09:14;;;;;;;;;;;;;;;6.45;100.00;97753.56;5093478;28;19935;-73
2022/02/17 08:11:41;;;;;;;;;;;;;;;6.41;100.00;97766.72;5093377;28;19977;-72
2022/02/17 08:14:08;;;;;;;;;;;;;;;6.53;100.00;97771.63;5092334;28;19932;-72
2022/02/17 08:16:36;;;;;;;;;;;;;;;6.54;100.00;97775.97;5091612;28;19924;-73
2022/02/17 08:19:04;;;;;;;;;;;;;;;6.56;100.00;97777.13;5092450;28;19923;-72
2022/02/17 08:21:47;;;;;;;;;;;;;;;6.18;100.00;97761.25;5093003;28;20065;-72
2022/02/17 08:24:16;;;;;;;;;;;;;;;6.33;100.00;97790.28;5092685;28;19938;-73
2022/02/17 08:27:02;;;;;;;;;;;;;;;6.39;100.00;97767.16;5091448;28;19958;-73
2022/02/17 08:29:34;;;;;;;;;;;;;;;6.39;100.00;97799.66;5092729;28;19924;-72
2022/02/17 08:32:02;;;;;;;;;;;;;;;6.63;100.00;97801.16;5092252;28;20260;-72
2022/02/17 08:34:29;;;;;;;;;;;;;;;6.63;100.00;97801.97;5094202;28;19951;-72
2022/02/17 08:36:56;;;;;;;;;;;;;;;6.85;100.00;97818.94;5095657;28;19923;-72
2022/02/17 08:39:23;;;;;;;;;;;;;;;7.02;100.00;97812.22;5096659;28;20290;-73
2022/02/17 08:41:50;;;;;;;;;;;;;;;6.72;100.00;97815.25;5095391;28;19924;-73
2022/02/17 08:44:18;;;;;;;;;;;;;;;6.65;100.00;97827.28;5095499;28;19928;-73
2022/02/17 08:46:46;;;;;;;;;;;;;;;6.28;100.00;97815.72;5075798;28;19986;-73
2022/02/17 08:49:13;;;;;;;;;;;;;;;6.34;100.00;97847.31;5075473;28;19935;-73
2022/02/17 08:51:41;;;;;;;;;;;;;;;6.16;100.00;97833.78;5073698;28;19928;-73
2022/02/17 08:54:08;;;;;;;;;;;;;;;6.28;100.00;97837.91;5077468;28;19928;-73
2022/02/17 08:56:35;;;;;;;;;;;;;;;6.40;100.00;97865.84;5074667;28;19924;-73
2022/02/17 08:59:03;;;;;;;;;;;;;;;6.62;100.00;97858.66;5075977;28;19931;-73
2022/02/17 09:01:31;;;;;;;;;;;;;;;6.57;100.00;97863.94;5075679;28;19924;-73
2022/02/17 09:03:58;;;;;;;;;;;;;;;6.51;100.00;97871.94;5074674;28;20013;-76
2022/02/17 09:06:25;;;;;;;;;;;;;;;6.92;100.00;97882.66;5093295;28;19991;-73
2022/02/17 09:08:53;;;;;;;;;;;;;;;6.68;100.00;97870.84;5095999;28;19947;-73
2022/02/17 09:11:56;;;;;;;;;;;;;;;6.64;100.00;97872.91;5090886;28;19916;-74
2022/02/17 09:14:24;;;;;;;;;;;;;;;6.84;100.00;97884.00;5089558;28;19925;-74
2022/02/17 09:16:53;;;;;;;;;;;;;;;6.62;100.00;97875.31;5073041;28;19924;-75
2022/02/17 09:19:21;;;;;;;;;;;;;;;6.66;100.00;97862.16;5072930;28;20011;-74
2022/02/17 09:21:48;;;;;;;;;;;;;;;6.61;100.00;97903.50;5086055;28;19928;-74
2022/02/17 09:24:17;;;;;;;;;;;;;;;6.79;100.00;97881.72;5073718;28;19925;-74
2022/02/17 09:26:45;;;;;;;;;;;;;;;6.79;100.00;97892.81;5069427;28;19924;-74
2022/02/17 09:29:12;;;;;;;;;;;;;;;6.83;100.00;97894.31;5085386;28;19931;-74
2022/02/17 09:31:59;;;;;;;;;;;;;;;7.08;100.00;97900.19;5090504;28;20310;-75
2022/02/17 09:34:27;;;;;;;;;;;;;;;7.18;100.00;97909.47;5084498;28;19925;-74
2022/02/17 09:36:54;;;;;;;;;;;;;;;7.18;100.00;97912.25;5078621;28;19931;-74
2022/02/17 09:39:21;;;;;;;;;;;;;;;6.96;100.00;97917.50;5079944;28;19932;-74
2022/02/17 09:41:49;;;;;;;;;;;;;;;6.59;100.00;97928.91;5090536;28;20368;-73
2022/02/17 09:44:19;;;;;;;;;;;;;;;6.48;100.00;97913.66;5090465;28;19931;-75
2022/02/17 09:46:47;;;;;;;;;;;;;;;6.65;100.00;97929.97;5089176;28;20249;-75
2022/02/17 09:49:15;;;;;;;;;;;;;;;6.50;100.00;97941.75;5086932;28;19956;-75
2022/02/17 09:51:43;;;;;;;;;;;;;;;6.62;100.00;97957.81;5092767;28;19930;-75
2022/02/17 09:54:10;;;;;;;;;;;;;;;6.97;100.00;97965.47;5090377;28;19925;-75
2022/02/17 09:56:39;;;;;;;;;;;;;;;7.03;100.00;97969.31;5090241;28;20375;-75
2022/02/17 09:59:08;;;;;;;;;;;;;;;6.71;100.00;97953.25;5090256;28;20077;-75
2022/02/17 10:01:35;;;;;;;;;;;;;;;7.04;100.00;97965.34;5090219;28;20324;-75
2022/02/17 10:04:21;;;;;;;;;;;;;;;6.77;100.00;97953.56;5090243;28;20418;-74
2022/02/17 10:06:59;;;;;;;;;;;;;;;6.95;100.00;97965.13;5072255;28;19932;-75
2022/02/17 10:09:35;;;;;;;;;;;;;;;6.77;100.00;97951.56;5090186;28;19931;-75
2022/02/17 10:12:03;;;;;;;;;;;;;;;6.82;100.00;97973.28;5069726;28;19928;-74
2022/02/17 10:14:30;;;;;;;;;;;;;;;7.10;100.00;97981.06;5069530;28;19924;-74
2022/02/17 10:17:03;;;;;;;;;;;;;;;7.16;100.00;97990.47;5069693;28;20381;-74
2022/02/17 10:19:35;;;;;;;;;;;;;;;7.10;100.00;97988.63;5069752;28;19932;-75
2022/02/17 10:22:05;;;;;;;;;;;;;;;7.07;100.00;97989.50;5045510;28;20392;-75
2022/02/17 10:24:48;;;;;;;;;;;;;;;7.29;100.00;97987.84;5056294;28;20075;-75
2022/02/17 10:27:16;;;;;;;;;;;;;;;6.79;100.00;97981.66;5056357;28;19924;-74
2022/02/17 10:30:02;;;;;;;;;;;;;;;7.08;100.00;97996.59;5056002;28;19925;-75
2022/02/17 10:32:31;;;;;;;;;;;;;;;6.79;100.00;98006.66;5056098;28;20388;-75
2022/02/17 10:35:14;;;;;;;;;;;;;;;6.99;100.00;98013.03;5088456;28;20299;-75
2022/02/17 10:37:48;;;;;;;;;;;;;;;6.94;100.00;97999.63;5056126;28;20364;-75
2022/02/17 10:40:16;;;;;;;;;;;;;;;6.83;100.00;98019.25;5056206;28;19932;-75
2022/02/17 10:42:56;;;;;;;;;;;;;;;6.22;100.00;98031.00;5055973;28;20288;-75
2022/02/17 10:45:32;;;;;;;;;;;;;;;5.93;100.00;98032.59;5071572;28;20018;-75
2022/02/17 10:48:12;;;;;;;;;;;;;;;6.15;100.00;98053.31;5054730;28;19935;-75
2022/02/17 10:50:39;;;;;;;;;;;;;;;6.09;100.00;98049.44;5055716;28;20303;-75
2022/02/17 10:53:20;;;;;;;;;;;;;;;6.24;100.00;98064.66;5055895;28;19925;-75
2022/02/17 10:55:51;;;;;;;;;;;;;;;6.22;100.00;98064.28;5055878;28;20023;-75
2022/02/17 10:58:18;;;;;;;;;;;;;;;6.43;100.00;98063.97;5055510;28;19932;-75
2022/02/17 11:00:45;;;;;;;;;;;;;;;6.67;100.00;98071.09;5054342;28;19963;-75
2022/02/17 11:03:13;;;;;;;;;;;;;;;6.61;100.00;98061.69;5054276;28;20311;-75
2022/02/17 11:05:53;;;;;;;;;;;;;;;6.85;100.00;98079.94;5054470;28;20426;-75
2022/02/17 11:08:20;;;;;;;;;;;;;;;6.94;100.00;98083.75;5058486;28;19932;-75
2022/02/17 11:10:49;;;;;;;;;;;;;;;7.18;100.00;98070.59;5061607;28;19925;-75
2022/02/17 11:13:18;;;;;;;;;;;;;;;7.38;100.00;98084.56;5055338;28;19932;-76
2022/02/17 11:15:48;;;;;;;;;;;;;;;7.32;100.00;98078.69;5068831;28;20269;-75
2022/02/17 11:18:17;;;;;;;;;;;;;;;7.33;100.00;98071.91;5075287;28;19924;-77
2022/02/17 11:20:46;;;;;;;;;;;;;;;7.61;100.00;98054.69;5073440;28;19932;-77
2022/02/17 11:23:38;;;;;;;;;;;;;;;7.59;100.00;98084.91;5076633;28;20021;-77
2022/02/17 11:26:18;;;;;;;;;;;;;;;7.60;100.00;98083.72;5075139;28;19925;-77
2022/02/17 11:28:44;;;;;;;;;;;;;;;7.39;100.00;98073.78;5105416;28;19927;-77
2022/02/17 11:31:12;;;;;;;;;;;;;;;7.56;100.00;98080.19;5095310;28;19924;-76
2022/02/17 11:33:41;;;;;;;;;;;;;;;7.89;100.00;98086.72;5089866;28;19932;-74
2022/02/17 11:36:14;;;;;;;;;;;;;;;7.52;100.00;98067.59;5073838;28;19946;-76
2022/02/17 11:38:41;;;;;;;;;;;;;;;7.42;100.00;98085.25;5072297;28;19924;-76
2022/02/17 11:41:16;;;;;;;;;;;;;;;7.25;100.00;98098.28;5074377;28;20006;-76
2022/02/17 11:43:45;;;;;;;;;;;;;;;7.26;100.00;98095.06;5074982;28;19932;-76
2022/02/17 11:46:14;;;;;;;;;;;;;;;6.12;100.00;98081.88;5073642;28;20298;-76
2022/02/17 11:48:43;;;;;;;;;;;;;;;6.14;100.00;98102.44;5074660;28;20047;-77
2022/02/17 11:51:22;;;;;;;;;;;;;;;6.39;100.00;98100.06;5074640;28;19924;-76
2022/02/17 11:53:51;;;;;;;;;;;;;;;6.79;100.00;98098.28;5073707;28;19954;-77
2022/02/17 11:56:18;;;;;;;;;;;;;;;6.84;100.00;98095.03;5074702;28;19970;-77
2022/02/17 11:58:47;;;;;;;;;;;;;;;6.95;100.00;98079.75;5073378;28;20320;-77
2022/02/17 12:01:24;;;;;;;;;;;;;;;6.89;100.00;98086.22;5073431;28;19925;-76
2022/02/17 12:04:15;;;;;;;;;;;;;;;7.11;100.00;98087.41;5107399;28;19924;-76
2022/02/17 12:06:59;;;;;;;;;;;;;;;7.06;100.00;98087.88;5073346;28;19931;-76
2022/02/17 12:09:41;;;;;;;;;;;;;;;7.19;100.00;98072.19;5074629;28;19924;-77
2022/02/17 12:12:35;;;;;;;;;;;;;;;7.20;100.00;98085.66;5074464;28;20442;-75
2022/02/17 12:15:07;;;;;;;;;;;;;;;7.41;100.00;98084.47;5072353;28;19952;-75
2022/02/17 12:17:35;;;;;;;;;;;;;;;7.40;100.00;98094.03;5073259;28;19928;-76
2022/02/17 12:20:03;;;;;;;;;;;;;;;7.43;100.00;98086.81;5074505;28;19925;-74
2022/02/17 12:22:30;;;;;;;;;;;;;;;7.74;100.00;98086.19;5073252;28;19928;-75
2022/02/17 12:25:13;;;;;;;;;;;;;;;8.15;100.00;98064.25;5074270;28;19928;-76
2022/02/17 12:27:41;;;;;;;;;;;;;;;8.37;100.00;98062.63;5073225;28;19924;-76
2022/02/17 12:30:09;;;;;;;;;;;;;;;8.58;100.00;98084.38;5073083;28;19989;-75
2022/02/17 12:32:36;;;;;;;;;;;;;;;8.42;100.00;98075.22;5072838;28;19924;-76
2022/02/17 12:35:05;;;;;;;;;;;;;;;8.60;100.00;98070.78;5056443;28;19925;-76
2022/02/17 12:37:32;;;;;;;;;;;;;;;8.66;100.00;98073.88;5073033;28;19943;-76
2022/02/17 12:39:59;;;;;;;;;;;;;;;8.69;100.00;98067.41;5075266;28;19991;-76
2022/02/17 12:42:38;;;;;;;;;;;;;;;8.80;100.00;98068.72;5074178;28;19932;-76
2022/02/17 12:45:06;;;;;;;;;;;;;;;8.87;100.00;98068.56;5073664;28;19931;-75
2022/02/17 12:47:34;;;;;;;;;;;;;;;8.95;100.00;98042.06;5073860;28;19929;-74
2022/02/17 12:50:04;;;;;;;;;;;;;;;9.06;100.00;98048.16;5072794;28;19997;-75
2022/02/17 12:52:31;;;;;;;;;;;;;;;9.14;100.00;98049.53;5073850;28;19924;-75
2022/02/17 12:54:59;;;;;;;;;;;;;;;9.49;100.00;98045.00;5073711;28;20006;-75
2022/02/17 12:57:27;;;;;;;;;;;;;;;9.76;100.00;98044.63;5073713;28;20009;-75
2022/02/17 12:59:55;;;;;;;;;;;;;;;9.58;100.00;98027.63;5072603;28;19924;-76
2022/02/17 13:02:22;;;;;;;;;;;;;;;9.44;100.00;98033.59;5092165;28;19924;-76
2022/02/17 13:04:49;;;;;;;;;;;;;;;9.56;100.00;98013.38;5094120;28;20027;-76
2022/02/17 13:07:22;;;;;;;;;;;;;;;8.96;100.00;98017.78;5092866;28;20011;-76
2022/02/17 13:09:53;;;;;;;;;;;;;;;9.35;100.00;98005.56;5093536;28;19946;-76
2022/02/17 13:12:20;;;;;;;;;;;;;;;9.38;100.00;98015.84;5093402;28;19931;-76